Bottisham, United Kingdom
Current Conditions -  °F | °C
As of 1:50 PM on Sunday 25 Jan 2015 (Local Time) from EGSC Reporting Station
Scattered Clouds Scattered Clouds  
Wind Chill: 38°   Ceiling: Unl
Heat Index: 45°   Visibility: 6mi
Dew Point: 37°   Wind: 13mph
Humidity: 76%   Direction: 230°SW
Pressure: 30.33"   Gusts: NA
Location:  52.22°N, 0.26°E
Report Text: EGSC 251350Z 23011KT 200V260 9999 SCT040 07/03 Q1027
Loading
Personal Weather Stations






























Interactive Weather Map New forecast layout! Learn more

10-Day Weather Forecast

Advertisements
Track Severe Weather on mobile